createdAt,value
2023-01-09T00:01:30.545Z,17.65
2023-01-09T00:04:00.898Z,14.90
2023-01-09T00:06:29.398Z,16.77
2023-01-09T00:08:58.108Z,16.45
2023-01-09T00:11:26.162Z,14.73
2023-01-09T00:13:54.315Z,13.52
2023-01-09T00:16:22.571Z,14.25
2023-01-09T00:18:53.254Z,15.10
2023-01-09T00:21:21.623Z,15.60
2023-01-09T00:23:49.522Z,13.00
2023-01-09T00:26:19.770Z,13.48
2023-01-09T00:28:49.229Z,16.27
2023-01-09T00:31:18.466Z,12.55
2023-01-09T00:33:53.752Z,14.23
2023-01-09T00:36:21.862Z,16.25
2023-01-09T00:38:50.310Z,14.40
2023-01-09T00:41:21.772Z,14.13
2023-01-09T00:43:54.258Z,13.05
2023-01-09T00:46:26.046Z,13.18
2023-01-09T00:48:55.394Z,12.93
2023-01-09T00:51:24.184Z,14.73
2023-01-09T00:53:53.138Z,13.82
2023-01-09T00:56:21.879Z,11.93
2023-01-09T00:58:50.600Z,13.23
2023-01-09T01:01:18.609Z,13.27
2023-01-09T01:03:46.746Z,12.05
2023-01-09T01:06:33.589Z,11.73
2023-01-09T01:09:01.827Z,10.95
2023-01-09T01:11:29.788Z,11.85
2023-01-09T01:13:57.858Z,12.23
2023-01-09T01:16:26.270Z,15.38
2023-01-09T01:18:54.209Z,13.55
2023-01-09T01:21:23.463Z,13.05
2023-01-09T01:23:51.447Z,17.48
2023-01-09T01:26:19.391Z,16.85
2023-01-09T01:28:47.387Z,15.10
2023-01-09T01:31:19.693Z,15.88
2023-01-09T01:33:47.919Z,13.95
2023-01-09T01:36:17.502Z,13.70
2023-01-09T01:38:47.813Z,11.95
2023-01-09T01:41:29.157Z,10.98
2023-01-09T01:43:59.011Z,12.65
2023-01-09T01:46:27.286Z,11.95
2023-01-09T01:49:00.317Z,10.93
2023-01-09T01:51:31.743Z,11.00
2023-01-09T01:54:06.603Z,11.82
2023-01-09T01:56:39.679Z,15.05
2023-01-09T01:59:11.006Z,12.77
2023-01-09T02:01:41.897Z,12.98
2023-01-09T02:04:10.922Z,12.52
2023-01-09T02:06:39.819Z,12.52
2023-01-09T02:09:10.213Z,12.15
2023-01-09T02:11:38.128Z,12.05
2023-01-09T02:14:06.125Z,10.82
2023-01-09T02:16:47.670Z,10.35
2023-01-09T02:19:38.233Z,11.02
2023-01-09T02:22:15.158Z,10.82
2023-01-09T02:25:04.700Z,11.25
2023-01-09T02:28:02.087Z,14.15
2023-01-09T02:30:41.586Z,12.13
2023-01-09T02:33:40.376Z,9.77
2023-01-09T02:36:24.697Z,11.93
2023-01-09T02:39:06.427Z,10.23
2023-01-09T02:41:39.348Z,10.80
2023-01-09T02:44:18.113Z,8.75
2023-01-09T02:46:47.456Z,9.07
2023-01-09T02:49:17.703Z,8.30
2023-01-09T02:51:52.936Z,8.35
2023-01-09T02:54:34.951Z,8.35
2023-01-09T02:57:20.604Z,8.85
2023-01-09T03:00:03.927Z,7.57
2023-01-09T03:02:45.405Z,7.05
2023-01-09T03:05:20.071Z,7.53
2023-01-09T03:07:55.683Z,6.72
2023-01-09T03:10:29.590Z,7.47
2023-01-09T03:12:59.191Z,7.15
2023-01-09T03:15:29.976Z,7.78
2023-01-09T03:18:02.096Z,6.55
2023-01-09T03:20:32.201Z,6.35
2023-01-09T03:23:01.786Z,5.47
2023-01-09T03:25:32.965Z,6.85
2023-01-09T03:28:02.638Z,4.97
2023-01-09T03:30:32.351Z,5.40
2023-01-09T03:33:01.716Z,7.10
2023-01-09T03:35:29.852Z,6.32
2023-01-09T03:37:58.971Z,6.07
2023-01-09T03:40:26.965Z,7.63
2023-01-09T03:42:54.866Z,5.53
2023-01-09T03:45:22.801Z,6.07
2023-01-09T03:47:52.979Z,6.25
2023-01-09T03:50:22.388Z,5.70
2023-01-09T03:52:50.353Z,6.03
2023-01-09T03:55:24.458Z,5.95
2023-01-09T03:57:53.052Z,5.90
2023-01-09T04:00:21.650Z,6.80
2023-01-09T04:02:50.348Z,5.80
2023-01-09T04:05:18.364Z,5.40
2023-01-09T04:07:47.643Z,5.47
2023-01-09T04:10:15.589Z,5.13
2023-01-09T04:12:43.515Z,6.50
2023-01-09T04:15:12.939Z,6.90
2023-01-09T04:17:40.863Z,5.93
2023-01-09T04:20:10.252Z,6.25
2023-01-09T04:22:38.411Z,6.10
2023-01-09T04:25:08.616Z,7.32
2023-01-09T04:27:38.758Z,6.93
2023-01-09T04:30:07.953Z,5.53
2023-01-09T04:32:35.869Z,6.28
2023-01-09T04:35:03.817Z,6.78
2023-01-09T04:37:31.738Z,5.35
2023-01-09T04:39:59.661Z,6.38
2023-01-09T04:42:28.896Z,5.38
2023-01-09T04:44:56.788Z,6.50
2023-01-09T04:47:24.726Z,7.22
2023-01-09T04:49:52.935Z,7.13
2023-01-09T04:52:20.922Z,5.70
2023-01-09T04:54:48.851Z,7.40
2023-01-09T04:57:16.774Z,8.38
2023-01-09T04:59:46.165Z,8.40
2023-01-09T05:02:14.368Z,10.98
2023-01-09T05:04:42.389Z,8.32
2023-01-09T05:07:10.668Z,10.20
2023-01-09T05:09:38.563Z,9.05
2023-01-09T05:12:07.154Z,8.07
2023-01-09T05:14:35.106Z,8.85
2023-01-09T05:17:04.365Z,8.98
2023-01-09T05:19:32.288Z,8.05
2023-01-09T05:22:00.190Z,8.35
2023-01-09T05:24:28.095Z,9.02
2023-01-09T05:26:56.006Z,8.55
2023-01-09T05:29:23.985Z,9.32
2023-01-09T05:31:52.776Z,9.65
2023-01-09T05:34:22.942Z,7.90
2023-01-09T05:36:51.021Z,7.80
2023-01-09T05:39:19.043Z,8.25
2023-01-09T05:41:47.016Z,7.95
2023-01-09T05:44:14.955Z,8.18
2023-01-09T05:46:42.888Z,7.18
2023-01-09T05:49:10.958Z,8.82
2023-01-09T05:51:40.203Z,7.47
2023-01-09T05:54:08.366Z,6.18
2023-01-09T05:56:36.331Z,6.88
2023-01-09T05:59:04.246Z,6.43
2023-01-09T06:01:32.247Z,6.20
2023-01-09T06:04:00.191Z,6.43
2023-01-09T06:06:28.205Z,6.40
2023-01-09T06:08:57.498Z,5.88
2023-01-09T06:11:25.444Z,6.03
2023-01-09T06:13:53.361Z,5.63
2023-01-09T06:16:21.436Z,6.15
2023-01-09T06:18:50.382Z,6.38
2023-01-09T06:21:18.299Z,5.80
2023-01-09T06:23:46.309Z,5.85
2023-01-09T06:26:15.727Z,5.47
2023-01-09T06:28:44.762Z,4.93
2023-01-09T06:31:13.267Z,5.38
2023-01-09T06:33:41.307Z,4.72
2023-01-09T06:36:09.937Z,6.55
2023-01-09T06:38:38.028Z,6.68
2023-01-09T06:41:06.404Z,6.50
2023-01-09T06:43:35.694Z,5.22
2023-01-09T06:46:05.477Z,5.10
2023-01-09T06:48:33.494Z,5.93
2023-01-09T06:51:01.727Z,6.03
2023-01-09T06:53:29.835Z,6.30
2023-01-09T06:55:57.757Z,7.22
2023-01-09T06:58:25.686Z,6.15
2023-01-09T07:00:55.704Z,5.07
2023-01-09T07:03:23.901Z,4.80
2023-01-09T07:05:52.267Z,5.18
2023-01-09T07:08:20.291Z,5.35
2023-01-09T07:10:48.189Z,5.10
2023-01-09T07:13:16.089Z,5.10
2023-01-09T07:15:44.100Z,5.13
2023-01-09T07:18:13.387Z,6.15
2023-01-09T07:20:41.573Z,5.93
2023-01-09T07:23:11.934Z,6.63
2023-01-09T07:25:40.048Z,7.43
2023-01-09T07:28:08.183Z,6.03
2023-01-09T07:30:36.150Z,6.50
2023-01-09T07:33:04.275Z,6.13
2023-01-09T07:35:33.745Z,7.13
2023-01-09T07:38:01.713Z,7.13
2023-01-09T07:40:29.670Z,6.78
2023-01-09T07:42:57.636Z,6.82
2023-01-09T07:45:25.568Z,6.80
2023-01-09T07:47:53.664Z,5.82
2023-01-09T07:50:23.674Z,5.93
2023-01-09T07:52:54.088Z,5.53
2023-01-09T07:55:21.990Z,6.70
2023-01-09T07:57:50.869Z,6.57
2023-01-09T08:00:21.015Z,7.82
2023-01-09T08:02:53.733Z,7.22
2023-01-09T08:05:22.228Z,5.50
2023-01-09T08:07:51.239Z,6.00
2023-01-09T08:10:21.014Z,4.93
2023-01-09T08:12:49.888Z,5.82
2023-01-09T08:15:18.167Z,6.72
2023-01-09T08:17:47.613Z,5.40
2023-01-09T08:20:17.171Z,5.57
2023-01-09T08:22:49.492Z,5.00
2023-01-09T08:25:18.281Z,6.05
2023-01-09T08:27:47.775Z,6.45
2023-01-09T08:30:16.956Z,5.43
2023-01-09T08:32:47.638Z,6.47
2023-01-09T08:35:15.697Z,6.18
2023-01-09T08:37:45.023Z,5.10
2023-01-09T08:40:14.012Z,4.93
2023-01-09T08:42:55.948Z,5.47
2023-01-09T08:45:43.041Z,5.18
2023-01-09T08:48:11.566Z,5.88
2023-01-09T08:50:39.598Z,5.55
2023-01-09T08:53:07.508Z,5.78
2023-01-09T08:55:35.462Z,6.03
2023-01-09T08:58:03.706Z,5.78
2023-01-09T09:00:33.016Z,5.85
2023-01-09T09:03:02.273Z,5.88
2023-01-09T09:05:31.712Z,6.55
2023-01-09T09:08:00.171Z,6.10
2023-01-09T09:10:29.711Z,5.13
2023-01-09T09:12:59.475Z,5.20
2023-01-09T09:15:28.868Z,5.47
2023-01-09T09:18:00.522Z,5.13
2023-01-09T09:20:30.842Z,5.90
2023-01-09T09:22:58.783Z,6.38
2023-01-09T09:25:26.853Z,6.72
2023-01-09T09:27:55.873Z,6.40
2023-01-09T09:30:25.300Z,6.45
2023-01-09T09:32:53.315Z,6.93
2023-01-09T09:35:23.241Z,9.95
2023-01-09T09:37:55.319Z,9.20
2023-01-09T09:41:04.031Z,9.65
2023-01-09T09:44:05.550Z,7.43
2023-01-09T09:46:41.308Z,6.05
2023-01-09T09:49:15.954Z,6.50
2023-01-09T09:52:06.736Z,9.20
2023-01-09T09:54:40.879Z,6.45
2023-01-09T09:57:15.637Z,6.68
2023-01-09T09:59:45.445Z,6.82
2023-01-09T10:02:26.771Z,5.47
2023-01-09T10:05:01.200Z,7.00
2023-01-09T10:07:38.419Z,8.20
2023-01-09T10:10:15.268Z,6.78
2023-01-09T10:12:49.550Z,6.05
2023-01-09T10:15:19.515Z,6.47
2023-01-09T10:18:08.489Z,6.45
2023-01-09T10:20:57.709Z,7.57
2023-01-09T10:23:52.608Z,7.43
2023-01-09T10:26:26.035Z,7.57
2023-01-09T10:29:31.375Z,6.57
2023-01-09T10:32:18.735Z,6.60
2023-01-09T10:34:57.436Z,7.32
2023-01-09T10:37:30.178Z,7.30
2023-01-09T10:40:03.569Z,6.93
2023-01-09T10:42:36.628Z,6.95
2023-01-09T10:45:08.336Z,7.28
2023-01-09T10:47:40.328Z,6.78
2023-01-09T10:50:20.681Z,7.20
2023-01-09T10:52:51.173Z,7.43
2023-01-09T10:55:28.871Z,6.60
2023-01-09T10:58:02.492Z,7.10
2023-01-09T11:00:30.462Z,6.53
2023-01-09T11:02:58.385Z,7.28
2023-01-09T11:05:29.195Z,7.88
2023-01-09T11:08:02.771Z,7.93
2023-01-09T11:13:26.540Z,7.97
2023-01-09T11:16:09.169Z,7.68
2023-01-09T11:18:40.896Z,9.10
2023-01-09T11:21:31.574Z,9.63
2023-01-09T11:24:27.769Z,10.60
2023-01-09T11:27:29.538Z,9.63
2023-01-09T11:30:27.775Z,7.88
2023-01-09T11:32:57.093Z,10.45
2023-01-09T11:35:29.044Z,8.07
2023-01-09T11:38:13.473Z,7.55
2023-01-09T11:40:49.705Z,6.75
2023-01-09T11:43:30.666Z,6.50
2023-01-09T11:46:03.020Z,6.70
2023-01-09T11:48:36.764Z,5.85
2023-01-09T11:51:08.060Z,6.63
2023-01-09T11:53:49.780Z,6.65
2023-01-09T11:56:18.587Z,6.85
2023-01-09T11:58:46.673Z,4.45
2023-01-09T12:01:35.201Z,5.32
2023-01-09T12:04:20.466Z,4.50
2023-01-09T12:07:10.759Z,4.43
2023-01-09T12:09:46.302Z,4.75
2023-01-09T12:12:25.596Z,4.90
2023-01-09T12:15:09.862Z,6.50
2023-01-09T12:17:52.149Z,7.05
2023-01-09T12:20:34.017Z,8.75
2023-01-09T12:23:19.962Z,7.40
2023-01-09T12:25:57.788Z,9.45
2023-01-09T12:28:55.333Z,9.27
2023-01-09T12:31:39.839Z,9.10
2023-01-09T12:34:24.160Z,9.95
2023-01-09T12:36:59.527Z,10.15
2023-01-09T12:39:35.669Z,10.05
2023-01-09T12:42:14.053Z,7.55
2023-01-09T12:44:55.653Z,7.63
2023-01-09T12:47:45.613Z,8.88
2023-01-09T12:50:31.314Z,8.25
2023-01-09T12:53:10.079Z,8.75
2023-01-09T12:55:43.164Z,10.13
2023-01-09T12:58:31.895Z,10.30
2023-01-09T13:01:03.785Z,7.82
2023-01-09T13:03:37.879Z,8.48
2023-01-09T13:06:14.775Z,7.95
2023-01-09T13:08:45.670Z,7.13
2023-01-09T13:11:21.069Z,6.70
2023-01-09T13:13:55.755Z,7.03
2023-01-09T13:16:29.079Z,6.18
2023-01-09T13:19:00.175Z,6.43
2023-01-09T13:21:32.263Z,6.40
2023-01-09T13:24:06.715Z,5.30
2023-01-09T13:26:38.579Z,6.57
2023-01-09T13:29:14.205Z,5.70
2023-01-09T13:31:58.716Z,5.93
2023-01-09T13:34:30.162Z,6.32
2023-01-09T13:37:00.841Z,16.45
2023-01-09T13:39:32.215Z,7.63
2023-01-09T13:42:19.472Z,5.20
2023-01-09T13:44:49.927Z,5.55
2023-01-09T13:47:20.759Z,5.20
2023-01-09T13:50:22.246Z,4.80
2023-01-09T13:52:51.735Z,5.22
2023-01-09T13:55:26.485Z,5.35
2023-01-09T13:58:25.766Z,5.47
2023-01-09T14:01:00.633Z,5.15
2023-01-09T14:03:32.838Z,4.78
2023-01-09T14:06:18.474Z,4.13
2023-01-09T14:09:05.981Z,5.10
2023-01-09T14:11:34.162Z,4.20
2023-01-09T14:14:06.881Z,4.03
2023-01-09T14:16:38.003Z,7.07
2023-01-09T14:19:19.469Z,4.45
2023-01-09T14:21:51.874Z,3.95
2023-01-09T14:24:25.830Z,5.13
2023-01-09T14:26:57.081Z,4.90
2023-01-09T14:29:44.599Z,6.10
2023-01-09T14:32:46.890Z,5.32
2023-01-09T14:35:26.362Z,4.10
2023-01-09T14:38:05.186Z,4.18
2023-01-09T14:40:34.984Z,3.70
2023-01-09T14:43:13.784Z,3.65
2023-01-09T14:45:49.942Z,4.32
2023-01-09T14:48:19.079Z,3.70
2023-01-09T14:50:55.276Z,3.83
2023-01-09T14:53:27.095Z,3.95
2023-01-09T14:55:57.903Z,3.55
2023-01-09T14:58:27.639Z,3.30
2023-01-09T15:01:03.129Z,2.92
2023-01-09T15:03:35.841Z,4.72
2023-01-09T15:06:04.181Z,4.40
2023-01-09T15:08:33.073Z,4.80
2023-01-09T15:11:02.484Z,3.97
2023-01-09T15:13:36.901Z,3.67
2023-01-09T15:16:07.370Z,4.43
2023-01-09T15:18:44.848Z,4.80
2023-01-09T15:21:19.639Z,4.72
2023-01-09T15:23:47.799Z,5.90
2023-01-09T15:26:26.622Z,5.40
2023-01-09T15:29:01.180Z,4.32
2023-01-09T15:31:30.269Z,5.93
2023-01-09T15:33:58.463Z,5.93
2023-01-09T15:36:30.866Z,6.85
2023-01-09T15:39:00.350Z,6.50
2023-01-09T15:41:49.086Z,8.07
2023-01-09T15:44:20.415Z,11.30
2023-01-09T15:46:50.307Z,12.15
2023-01-09T15:49:19.798Z,13.05
2023-01-09T15:51:49.566Z,11.68
2023-01-09T15:54:19.303Z,9.48
2023-01-09T15:56:48.570Z,10.13
2023-01-09T15:59:27.963Z,10.73
2023-01-09T16:02:20.591Z,9.43
2023-01-09T16:04:49.761Z,14.90
2023-01-09T16:07:20.867Z,12.82
2023-01-09T16:09:52.604Z,13.90
2023-01-09T16:12:24.483Z,11.02
2023-01-09T16:14:55.120Z,7.05
2023-01-09T16:17:26.444Z,6.32
2023-01-09T16:19:58.288Z,6.20
2023-01-09T16:22:27.830Z,6.95
2023-01-09T16:24:57.725Z,5.93
2023-01-09T16:27:29.912Z,7.53
2023-01-09T16:29:59.534Z,9.27
2023-01-09T16:32:30.582Z,8.32
2023-01-09T16:35:00.791Z,9.63
2023-01-09T16:37:29.217Z,9.88
2023-01-09T16:40:27.268Z,12.35
2023-01-09T16:43:00.489Z,10.27
2023-01-09T16:45:31.364Z,10.70
2023-01-09T16:47:59.519Z,7.93
2023-01-09T16:50:27.637Z,9.85
2023-01-09T16:52:56.875Z,6.68
2023-01-09T16:55:25.822Z,5.35
2023-01-09T16:57:53.765Z,4.78
2023-01-09T17:00:26.215Z,6.63
2023-01-09T17:02:54.124Z,10.02
2023-01-09T17:05:22.319Z,8.15
2023-01-09T17:07:51.376Z,6.95
2023-01-09T17:10:22.783Z,6.00
2023-01-09T17:12:51.288Z,6.93
2023-01-09T17:15:19.406Z,6.90
2023-01-09T17:17:48.637Z,7.30
2023-01-09T17:20:18.909Z,6.05
2023-01-09T17:22:49.852Z,7.18
2023-01-09T17:25:35.931Z,5.18
2023-01-09T17:28:22.665Z,6.68
2023-01-09T17:30:50.866Z,7.15
2023-01-09T17:33:20.454Z,7.25
2023-01-09T17:35:48.532Z,7.68
2023-01-09T17:38:16.839Z,8.40
2023-01-09T17:40:45.585Z,7.05
2023-01-09T17:43:14.049Z,8.07
2023-01-09T17:45:42.922Z,14.00
2023-01-09T17:48:16.919Z,16.15
2023-01-09T17:50:47.242Z,19.00
2023-01-09T17:53:17.715Z,20.17
2023-01-09T17:55:45.960Z,14.32
2023-01-09T17:58:28.872Z,13.82
2023-01-09T18:00:57.592Z,7.78
2023-01-09T18:03:33.232Z,6.57
2023-01-09T18:06:03.345Z,8.27
2023-01-09T18:08:34.455Z,7.32
2023-01-09T18:11:05.783Z,9.10
2023-01-09T18:13:34.460Z,11.48
2023-01-09T18:16:02.493Z,12.50
2023-01-09T18:18:30.688Z,11.10
2023-01-09T18:20:58.760Z,10.38
2023-01-09T18:23:28.008Z,7.25
2023-01-09T18:25:55.936Z,6.80
2023-01-09T18:28:23.955Z,8.40
2023-01-09T18:30:54.626Z,5.85
2023-01-09T18:33:23.314Z,5.32
2023-01-09T18:35:54.128Z,5.93
2023-01-09T18:38:22.005Z,6.25
2023-01-09T18:40:51.260Z,6.38
2023-01-09T18:43:20.287Z,6.15
2023-01-09T18:45:48.219Z,6.75
2023-01-09T18:48:16.169Z,6.97
2023-01-09T18:50:45.573Z,6.63
2023-01-09T18:53:13.531Z,6.90
2023-01-09T18:55:41.529Z,6.93
2023-01-09T18:58:10.757Z,6.75
2023-01-09T19:00:41.214Z,9.77
2023-01-09T19:03:09.237Z,7.68
2023-01-09T19:05:37.218Z,7.78
2023-01-09T19:08:05.328Z,9.80
2023-01-09T19:10:34.167Z,8.43
2023-01-09T19:13:02.125Z,7.65
2023-01-09T19:15:31.919Z,8.15
2023-01-09T19:18:02.231Z,7.68
2023-01-09T19:20:30.122Z,8.43
2023-01-09T19:22:58.113Z,9.88
2023-01-09T19:25:28.928Z,8.88
2023-01-09T19:27:59.875Z,9.65
2023-01-09T19:30:27.900Z,8.95
2023-01-09T19:32:57.124Z,8.07
2023-01-09T19:35:27.474Z,9.63
2023-01-09T19:37:55.425Z,12.55
2023-01-09T19:40:23.315Z,11.02
2023-01-09T19:42:54.539Z,10.57
2023-01-09T19:45:22.884Z,8.05
2023-01-09T19:47:51.313Z,6.50
2023-01-09T19:50:21.901Z,6.50
2023-01-09T19:52:50.764Z,5.63
2023-01-09T19:55:18.723Z,5.15
2023-01-09T19:57:46.843Z,5.63
2023-01-09T20:00:16.420Z,5.15
2023-01-09T20:02:44.411Z,4.70
2023-01-09T20:05:12.365Z,4.25
2023-01-09T20:07:43.840Z,3.72
2023-01-09T20:10:12.429Z,5.15
2023-01-09T20:12:40.943Z,4.18
2023-01-09T20:15:14.682Z,5.57
2023-01-09T20:17:43.108Z,4.38
2023-01-09T20:20:12.000Z,5.57
2023-01-09T20:22:41.485Z,5.45
2023-01-09T20:25:11.022Z,5.53
2023-01-09T20:27:38.992Z,6.78
2023-01-09T20:30:08.423Z,5.22
2023-01-09T20:32:37.019Z,6.95
2023-01-09T20:35:05.169Z,7.20
2023-01-09T20:37:33.079Z,6.40
2023-01-09T20:40:02.340Z,8.60
2023-01-09T20:42:30.269Z,6.28
2023-01-09T20:44:58.565Z,8.57
2023-01-09T20:47:26.637Z,10.02
2023-01-09T20:49:54.616Z,10.68
2023-01-09T20:52:22.858Z,10.35
2023-01-09T20:54:50.829Z,12.02
2023-01-09T20:57:20.119Z,10.48
2023-01-09T20:59:48.331Z,9.63
2023-01-09T21:02:16.311Z,10.40
2023-01-09T21:04:44.236Z,10.45
2023-01-09T21:07:12.228Z,12.32
2023-01-09T21:09:40.167Z,11.73
2023-01-09T21:12:24.694Z,11.18
2023-01-09T21:14:54.552Z,9.93
2023-01-09T21:17:24.112Z,16.33
2023-01-09T21:19:52.024Z,18.17
2023-01-09T21:22:20.245Z,19.63
2023-01-09T21:24:50.333Z,15.70
2023-01-09T21:27:18.489Z,17.75
2023-01-09T21:29:46.614Z,14.45
2023-01-09T21:32:15.978Z,12.00
2023-01-09T21:34:43.922Z,10.30
2023-01-09T21:37:11.901Z,9.23
2023-01-09T21:39:40.014Z,8.45
2023-01-09T21:42:25.387Z,9.95
2023-01-09T21:45:11.269Z,11.95
2023-01-09T21:47:40.515Z,15.15
2023-01-09T21:50:09.615Z,13.77
2023-01-09T21:52:37.618Z,15.85
2023-01-09T21:55:06.395Z,15.27
2023-01-09T21:57:34.355Z,13.52
2023-01-09T22:00:02.315Z,15.57
2023-01-09T22:02:41.099Z,13.80
2023-01-09T22:05:11.627Z,14.18
2023-01-09T22:07:41.232Z,24.77
2023-01-09T22:10:10.561Z,27.67
2023-01-09T22:12:38.510Z,24.42
2023-01-09T22:15:09.407Z,19.95
2023-01-09T22:17:37.324Z,18.25
2023-01-09T22:20:07.719Z,18.08
2023-01-09T22:22:35.734Z,16.67
2023-01-09T22:25:04.178Z,15.70
2023-01-09T22:27:32.099Z,15.38
2023-01-09T22:30:00.149Z,14.20
2023-01-09T22:32:28.079Z,11.45
2023-01-09T22:34:56.008Z,10.77
2023-01-09T22:37:25.275Z,13.23
2023-01-09T22:39:53.239Z,11.07
2023-01-09T22:42:21.153Z,13.18
2023-01-09T22:44:49.049Z,11.35
2023-01-09T22:47:16.947Z,11.88
2023-01-09T22:49:52.882Z,11.32
2023-01-09T22:52:21.464Z,10.73
2023-01-09T22:54:50.819Z,15.15
2023-01-09T22:57:18.763Z,16.75
2023-01-09T22:59:46.706Z,15.73
2023-01-09T23:02:14.675Z,15.82
2023-01-09T23:04:42.616Z,15.07
2023-01-09T23:07:10.534Z,14.98
2023-01-09T23:09:38.804Z,16.23
2023-01-09T23:12:08.630Z,16.67
2023-01-09T23:14:38.293Z,15.32
2023-01-09T23:17:07.946Z,16.27
2023-01-09T23:19:36.121Z,15.35
2023-01-09T23:22:06.173Z,16.25
2023-01-09T23:24:34.375Z,13.98
2023-01-09T23:27:04.339Z,12.95
2023-01-09T23:29:35.292Z,13.85
2023-01-09T23:32:07.111Z,12.13
2023-01-09T23:34:35.140Z,11.45
2023-01-09T23:37:08.849Z,12.02
2023-01-09T23:39:36.888Z,9.52
2023-01-09T23:42:22.829Z,8.27
2023-01-09T23:44:52.133Z,10.55
2023-01-09T23:47:20.050Z,10.52
2023-01-09T23:49:49.930Z,8.77
2023-01-09T23:52:18.180Z,7.43
2023-01-09T23:54:46.097Z,8.75
2023-01-09T23:57:14.058Z,8.50
2023-01-09T23:59:44.293Z,8.75
